createdAt,value
2019-02-11T00:00:08.608Z,34.80
2019-02-11T00:03:02.552Z,34.40
2019-02-11T00:05:55.787Z,34.30
2019-02-11T00:08:50.015Z,34.30
2019-02-11T00:11:43.260Z,34.30
2019-02-11T00:14:36.323Z,34.30
2019-02-11T00:17:29.338Z,34.40
2019-02-11T00:20:22.744Z,34.50
2019-02-11T00:23:15.998Z,34.40
2019-02-11T00:26:08.749Z,34.30
2019-02-11T00:29:01.973Z,34.40
2019-02-11T00:31:55.011Z,34.40
2019-02-11T00:34:48.038Z,34.40
2019-02-11T00:37:40.851Z,34.50
2019-02-11T00:40:33.590Z,34.30
2019-02-11T00:43:26.573Z,34.30
2019-02-11T00:46:19.080Z,34.40
2019-02-11T00:49:12.016Z,34.50
2019-02-11T00:52:05.106Z,34.60
2019-02-11T00:54:57.561Z,34.60
2019-02-11T00:57:50.750Z,34.70
2019-02-11T01:00:43.937Z,34.40
2019-02-11T01:03:37.007Z,34.40
2019-02-11T01:06:30.260Z,34.50
2019-02-11T01:09:23.143Z,34.70
2019-02-11T01:12:15.723Z,34.80
2019-02-11T01:15:09.556Z,34.70
2019-02-11T01:18:02.416Z,34.90
2019-02-11T01:20:55.119Z,34.90
2019-02-11T01:23:48.004Z,34.80
2019-02-11T01:26:41.044Z,34.80
2019-02-11T01:29:34.509Z,34.60
2019-02-11T01:32:27.318Z,34.90
2019-02-11T01:35:20.098Z,34.90
2019-02-11T01:38:13.800Z,35.00
2019-02-11T01:41:06.907Z,34.80
2019-02-11T01:43:59.821Z,34.80
2019-02-11T01:46:53.011Z,35.00
2019-02-11T01:49:45.950Z,35.00
2019-02-11T01:52:38.810Z,35.10
2019-02-11T01:55:32.083Z,35.00
2019-02-11T01:58:25.169Z,35.00
2019-02-11T02:01:18.202Z,35.20
2019-02-11T02:04:11.279Z,35.10
2019-02-11T02:07:04.481Z,34.70
2019-02-11T02:09:56.843Z,34.80
2019-02-11T02:12:49.639Z,35.00
2019-02-11T02:15:42.105Z,34.70
2019-02-11T02:18:35.036Z,34.60
2019-02-11T02:21:28.214Z,34.60
2019-02-11T02:24:21.528Z,34.50
2019-02-11T02:27:14.238Z,34.70
2019-02-11T02:30:06.948Z,34.50
2019-02-11T02:33:01.708Z,34.40
2019-02-11T02:35:54.954Z,34.20
2019-02-11T02:38:47.892Z,34.40
2019-02-11T02:41:40.883Z,34.20
2019-02-11T02:44:33.785Z,34.20
2019-02-11T02:47:28.215Z,34.40
2019-02-11T02:50:22.088Z,34.20
2019-02-11T02:53:16.147Z,34.10
2019-02-11T02:56:10.037Z,34.30
2019-02-11T02:59:03.842Z,34.20
2019-02-11T03:01:58.433Z,34.30
2019-02-11T03:04:59.698Z,34.60
2019-02-11T03:07:55.463Z,34.50
2019-02-11T03:10:50.061Z,34.60
2019-02-11T03:14:23.081Z,34.60
2019-02-11T03:16:53.491Z,34.70
2019-02-11T03:19:46.436Z,34.60
2019-02-11T03:22:40.410Z,34.70
2019-02-11T03:25:36.126Z,34.60
2019-02-11T03:28:28.728Z,34.60
2019-02-11T03:31:22.033Z,34.30
2019-02-11T03:34:14.748Z,34.40
2019-02-11T03:37:07.430Z,34.90
2019-02-11T03:40:01.622Z,34.70
2019-02-11T03:42:54.656Z,34.80
2019-02-11T03:45:48.558Z,34.80
2019-02-11T03:48:43.146Z,34.50
2019-02-11T03:51:36.028Z,34.80
2019-02-11T03:54:28.985Z,34.80
2019-02-11T03:57:22.525Z,34.40
2019-02-11T04:00:17.983Z,34.40
2019-02-11T04:03:11.548Z,34.50
2019-02-11T04:06:04.706Z,34.60
2019-02-11T04:08:57.695Z,34.30
2019-02-11T04:11:51.491Z,34.10
2019-02-11T04:14:45.437Z,34.60
2019-02-11T04:17:38.998Z,34.60
2019-02-11T04:20:32.625Z,34.60
2019-02-11T04:23:25.811Z,34.40
2019-02-11T04:26:19.348Z,34.30
2019-02-11T04:29:12.992Z,34.30
2019-02-11T04:32:06.191Z,34.30
2019-02-11T04:35:00.349Z,34.60
2019-02-11T04:37:53.558Z,33.40
2019-02-11T04:40:47.036Z,32.60
2019-02-11T04:43:40.839Z,33.20
2019-02-11T04:46:34.345Z,33.70
2019-02-11T04:52:32.504Z,32.00
2019-02-11T04:55:26.575Z,31.60
2019-02-11T04:58:20.152Z,31.90
2019-02-11T05:01:23.946Z,31.80
2019-02-11T05:04:22.727Z,31.50
2019-02-11T05:07:15.874Z,31.20
2019-02-11T05:10:16.274Z,31.10
2019-02-11T05:13:35.691Z,30.90
2019-02-11T05:19:51.769Z,30.50
2019-02-11T05:22:46.107Z,30.40
2019-02-11T05:25:53.128Z,30.20
2019-02-11T05:28:50.449Z,30.10
2019-02-11T05:31:59.424Z,29.70
2019-02-11T05:34:54.689Z,29.70
2019-02-11T05:37:50.553Z,30.00
2019-02-11T05:40:45.310Z,30.00
2019-02-11T05:43:41.655Z,29.80
2019-02-11T05:46:48.104Z,29.70
2019-02-11T05:50:04.983Z,30.40
2019-02-11T05:53:00.082Z,30.00
2019-02-11T05:56:15.340Z,29.80
2019-02-11T05:59:06.451Z,30.10
2019-02-11T06:02:01.411Z,30.10
2019-02-11T06:08:51.108Z,30.00
2019-02-11T06:11:15.305Z,30.80
2019-02-11T06:14:13.062Z,30.90
2019-02-11T06:17:47.538Z,31.20
2019-02-11T06:20:58.615Z,32.00
2019-02-11T06:27:05.886Z,33.20
2019-02-11T06:30:41.685Z,32.80
2019-02-11T06:33:03.087Z,34.20
2019-02-11T06:46:38.312Z,34.50
2019-02-11T07:19:19.380Z,38.50
2019-02-11T07:29:21.475Z,39.50
2019-02-11T07:46:17.425Z,40.20
2019-02-11T07:55:35.133Z,40.60
2019-02-11T07:58:38.576Z,41.00
2019-02-11T08:01:30.772Z,41.10
2019-02-11T08:04:37.322Z,41.10
2019-02-11T08:07:26.142Z,41.10
2019-02-11T08:10:19.027Z,41.40
2019-02-11T08:13:15.513Z,41.30
2019-02-11T08:16:08.776Z,41.40
2019-02-11T08:19:01.247Z,41.20
2019-02-11T08:21:55.576Z,41.10
2019-02-11T08:24:58.705Z,41.30
2019-02-11T08:27:54.681Z,41.20
2019-02-11T08:30:54.388Z,41.20
2019-02-11T08:33:48.600Z,39.10
2019-02-11T08:36:56.325Z,38.40
2019-02-11T08:43:41.291Z,34.90
2019-02-11T08:48:44.010Z,34.40
2019-02-11T08:53:13.048Z,31.00
2019-02-11T08:56:19.867Z,30.80
2019-02-11T08:59:37.406Z,31.20
2019-02-11T09:02:43.935Z,30.50
2019-02-11T09:09:24.543Z,30.40
2019-02-11T09:12:35.395Z,31.00
2019-02-11T09:23:13.718Z,30.50
2019-02-11T09:25:06.214Z,31.00
2019-02-11T09:26:08.817Z,30.40
2019-02-11T09:29:05.660Z,30.50
2019-02-11T09:31:59.028Z,30.80
2019-02-11T09:45:34.949Z,30.70
2019-02-11T09:48:30.524Z,30.40
2019-02-11T09:51:47.386Z,30.40
2019-02-11T09:54:42.075Z,30.50
2019-02-11T09:57:46.649Z,29.20
2019-02-11T10:00:44.126Z,29.90
2019-02-11T10:29:28.554Z,29.80
2019-02-11T10:32:30.074Z,29.70
2019-02-11T10:35:41.864Z,29.60
2019-02-11T10:39:19.298Z,29.00
2019-02-11T10:42:37.421Z,29.50
2019-02-11T10:56:10.804Z,29.30
2019-02-11T10:59:10.318Z,29.70
2019-02-11T11:02:04.301Z,28.70
2019-02-11T11:11:32.098Z,28.80
2019-02-11T11:18:31.336Z,29.90
2019-02-11T11:21:54.462Z,29.00
2019-02-11T11:24:44.808Z,28.30
2019-02-11T11:34:43.592Z,27.30
2019-02-11T11:37:37.249Z,26.40
2019-02-11T11:40:42.466Z,26.10
2019-02-11T11:43:37.949Z,26.30
2019-02-11T11:46:46.770Z,25.80
2019-02-11T15:48:50.679Z,32.60
2019-02-11T15:52:11.458Z,32.80
2019-02-11T15:55:07.745Z,32.90
2019-02-11T15:58:11.287Z,32.80
2019-02-11T16:01:21.163Z,32.80
2019-02-11T16:04:08.011Z,32.70
2019-02-11T16:07:13.537Z,32.80
2019-02-11T16:10:24.820Z,32.80
2019-02-11T16:13:21.820Z,33.30
2019-02-11T16:16:16.664Z,33.30
2019-02-11T16:19:17.938Z,33.30
2019-02-11T16:22:10.801Z,33.20
2019-02-11T16:25:08.077Z,33.10
2019-02-11T16:28:04.420Z,33.10
2019-02-11T16:30:58.131Z,33.10
2019-02-11T16:33:53.295Z,33.30
2019-02-11T16:36:47.341Z,33.20
2019-02-11T16:39:43.590Z,33.40
2019-02-11T16:42:45.644Z,33.30
2019-02-11T16:45:38.565Z,33.50
2019-02-11T16:48:31.438Z,33.30
2019-02-11T16:51:25.423Z,33.30
2019-02-11T16:54:18.992Z,33.60
2019-02-11T16:57:12.002Z,33.60
2019-02-11T17:00:04.879Z,33.20
2019-02-11T17:02:58.168Z,33.50
2019-02-11T17:05:54.349Z,33.70
2019-02-11T17:08:47.156Z,34.10
2019-02-11T17:11:45.793Z,34.00
2019-02-11T17:14:41.532Z,34.00
2019-02-11T17:17:46.412Z,34.20
2019-02-11T17:20:58.274Z,34.20
2019-02-11T17:23:58.801Z,34.20
2019-02-11T17:27:20.896Z,34.40
2019-02-11T17:34:36.170Z,34.20
2019-02-11T17:37:34.256Z,33.90
2019-02-11T17:40:11.650Z,34.50
2019-02-11T17:43:30.505Z,34.60
2019-02-11T17:46:25.080Z,34.20
2019-02-11T17:49:22.408Z,34.70
2019-02-11T17:52:15.937Z,34.70
2019-02-11T17:55:09.597Z,34.50
2019-02-11T17:58:03.737Z,34.50
2019-02-11T18:01:00.611Z,34.60
2019-02-11T18:03:54.248Z,35.20
2019-02-11T18:06:50.327Z,35.00
2019-02-11T18:09:43.434Z,34.70
2019-02-11T18:12:36.738Z,34.70
2019-02-11T18:15:30.411Z,34.60
2019-02-11T18:18:23.924Z,34.80
2019-02-11T18:21:17.390Z,34.60
2019-02-11T18:24:13.667Z,34.60
2019-02-11T18:27:07.000Z,34.80
2019-02-11T18:29:59.945Z,34.70
2019-02-11T18:32:53.230Z,34.40
2019-02-11T18:35:46.887Z,33.90
2019-02-11T18:38:40.265Z,34.00
2019-02-11T18:41:33.778Z,34.10
2019-02-11T18:44:26.677Z,33.90
2019-02-11T18:47:20.320Z,34.00
2019-02-11T18:50:14.401Z,34.50
2019-02-11T18:53:07.563Z,34.60
2019-02-11T18:56:00.814Z,34.70
2019-02-11T18:58:55.554Z,34.80
2019-02-11T19:01:49.146Z,34.90
2019-02-11T19:04:42.972Z,34.90
2019-02-11T19:07:36.311Z,34.60
2019-02-11T19:10:29.774Z,34.40
2019-02-11T19:13:23.246Z,34.30
2019-02-11T19:16:15.779Z,34.30
2019-02-11T19:19:08.946Z,34.40
2019-02-11T19:22:02.358Z,34.20
2019-02-11T19:24:56.054Z,34.30
2019-02-11T19:27:49.450Z,34.30
2019-02-11T19:30:42.648Z,34.60
2019-02-11T19:33:35.274Z,34.60
2019-02-11T19:36:28.529Z,35.00
2019-02-11T19:39:21.267Z,34.20
2019-02-11T19:42:14.924Z,34.10
2019-02-11T19:45:08.426Z,34.20
2019-02-11T19:48:01.775Z,34.20
2019-02-11T19:50:57.682Z,34.10
2019-02-11T19:53:51.636Z,34.20
2019-02-11T19:56:44.358Z,34.30
2019-02-11T19:59:37.138Z,34.00
2019-02-11T20:02:33.066Z,34.20
2019-02-11T20:05:25.279Z,34.00
2019-02-11T20:08:18.853Z,34.00
2019-02-11T20:11:14.595Z,34.10
2019-02-11T20:14:06.426Z,34.10
2019-02-11T20:17:08.948Z,34.00
2019-02-11T20:20:02.763Z,34.10
2019-02-11T20:22:58.729Z,34.10
2019-02-11T20:25:51.645Z,34.10
2019-02-11T20:28:47.179Z,34.20
2019-02-11T20:31:43.253Z,34.10
2019-02-11T20:34:41.528Z,34.40
2019-02-11T20:37:35.688Z,34.30
2019-02-11T20:40:28.852Z,34.20
2019-02-11T20:43:21.216Z,34.20
2019-02-11T20:46:13.734Z,34.40
2019-02-11T20:49:07.128Z,34.70
2019-02-11T20:52:00.309Z,34.90
2019-02-11T20:54:54.023Z,34.30
2019-02-11T20:57:49.021Z,33.90
2019-02-11T21:00:42.066Z,34.00
2019-02-11T21:03:34.752Z,34.20
2019-02-11T21:06:28.107Z,34.40
2019-02-11T21:09:20.791Z,34.40
2019-02-11T21:12:14.411Z,34.50
2019-02-11T21:15:07.934Z,34.40
2019-02-11T21:18:06.496Z,34.40
2019-02-11T21:20:59.340Z,34.60
2019-02-11T21:23:52.461Z,34.40
2019-02-11T21:26:45.234Z,34.50
2019-02-11T21:29:38.182Z,34.60
2019-02-11T21:32:30.668Z,34.50
2019-02-11T21:35:23.523Z,34.70
2019-02-11T21:38:16.310Z,34.70
2019-02-11T21:41:09.420Z,34.60
2019-02-11T21:44:02.395Z,35.00
2019-02-11T21:46:55.819Z,35.10
2019-02-11T21:49:48.100Z,35.40
2019-02-11T21:52:41.055Z,35.20
2019-02-11T21:55:35.214Z,35.60
2019-02-11T21:58:29.348Z,35.50
2019-02-11T22:01:22.389Z,35.60
2019-02-11T22:04:15.718Z,35.30
2019-02-11T22:07:08.825Z,35.90
2019-02-11T22:10:02.155Z,35.90
2019-02-11T22:12:55.090Z,35.80
2019-02-11T22:15:48.006Z,35.70
2019-02-11T22:18:41.126Z,35.80
2019-02-11T22:21:45.156Z,35.90
2019-02-11T22:24:38.246Z,35.90
2019-02-11T22:27:30.818Z,36.00
2019-02-11T22:30:24.082Z,36.10
2019-02-11T22:33:16.307Z,36.20
2019-02-11T22:36:09.470Z,36.00
2019-02-11T22:39:02.467Z,36.10
2019-02-11T22:41:55.674Z,36.00
2019-02-11T22:44:49.306Z,36.20
2019-02-11T22:47:42.517Z,36.20
2019-02-11T22:50:42.870Z,36.20
2019-02-11T22:53:29.587Z,36.40
2019-02-11T22:56:23.036Z,36.40
2019-02-11T22:59:16.570Z,36.40
2019-02-11T23:02:09.512Z,36.50
2019-02-11T23:05:02.216Z,36.60
2019-02-11T23:07:54.709Z,36.50
2019-02-11T23:10:47.369Z,36.50
2019-02-11T23:13:40.649Z,36.60
2019-02-11T23:16:33.933Z,36.60
2019-02-11T23:19:26.703Z,36.50
2019-02-11T23:22:19.793Z,36.00
2019-02-11T23:25:12.832Z,36.20
2019-02-11T23:28:05.907Z,36.10
2019-02-11T23:30:58.772Z,36.20
2019-02-11T23:33:51.814Z,36.30
2019-02-11T23:36:45.007Z,36.20
2019-02-11T23:39:37.854Z,36.20
2019-02-11T23:42:30.786Z,36.30
2019-02-11T23:45:24.189Z,36.20
2019-02-11T23:48:17.447Z,36.00
2019-02-11T23:51:10.584Z,36.00
2019-02-11T23:54:03.863Z,36.00
2019-02-11T23:56:56.931Z,36.00
2019-02-11T23:59:50.218Z,36.10
